F/V Jeremi Simon — FHAF — position and weather

sailwx.info

Track history (hours):
 
Tides and Currents Weather Stations Pressure Air Temp Water Temp Dewpoint Dewpoint Depression Visibility Wind Speed Wind Dir Waves Ship Positions

F/V Jeremi Simon

Last reported at 2014-Sep-15 08:33 UTC. Time now 2014-Sep-15 09:31 UTC.
Position N 46°23' W 002°06'.

Length 20 m.

Type: Other ship. MMSI: 227415000.

Date/timePositionNaut miles runAvg speedWind from/ knotsBaromVisibWave heightAir tempDewpointWater temp
2014-Sep-15 08:33N 46°23' W 002°06'3 3.1
2014-Sep-15 07:33N 46°26' W 002°08'3 3.1
2014-Sep-15 06:32N 46°29' W 002°10'9 8.0
2014-Sep-15 05:28N 46°37' W 002°05'8 8.4
2014-Sep-15 04:33N 46°42' W 001°57'0 0.0
2014-Sep-15 03:33N 46°42' W 001°57'0 0.0
2014-Sep-14 17:33N 46°42' W 001°57'0 0.1
2014-Sep-14 16:33N 46°42' W 001°57'0 0.0
2014-Sep-14 15:33N 46°42' W 001°57'2 2.0
2014-Sep-14 14:33N 46°41' W 001°59'0 0.5
2014-Sep-14 13:33N 46°41' W 001°59'7 6.7
2014-Sep-14 12:33N 46°36' W 002°06'7 6.1
2014-Sep-14 11:20N 46°32' W 002°15'2 1.1
2014-Sep-14 09:33N 46°32' W 002°12'1 0.9
2014-Sep-14 08:32N 46°32' W 002°13'2 1.2
2014-Sep-14 07:13N 46°33' W 002°11'1 1.8
2014-Sep-14 06:33N 46°32' W 002°12'2 2.2
2014-Sep-14 05:33N 46°33' W 002°09'8 8.2
2014-Sep-14 04:33N 46°39' W 002°01'4 4.4
2014-Sep-14 03:33N 46°42' W 001°57'  
2014-Sep-11 15:33N 46°39' W 001°59'9 9.5
2014-Sep-11 14:33N 46°30' W 002°06'8 8.2
2014-Sep-11 13:32N 46°23' W 002°11'1 0.5
2014-Sep-11 12:24N 46°22' W 002°11'0 0.2
2014-Sep-11 11:13N 46°22' W 002°11'0 0.3
2014-Sep-11 10:29N 46°22' W 002°11'2 1.6
2014-Sep-11 09:33N 46°23' W 002°09'3 2.5
2014-Sep-11 08:33N 46°25' W 002°08'2 2.1
2014-Sep-11 07:27N 46°27' W 002°10'10 4.6
2014-Sep-11 05:11N 46°37' W 002°12'6 8.9
2014-Sep-11 04:33N 46°39' W 002°04'6 5.7
2014-Sep-11 03:33N 46°42' W 001°57'0 0.0
2014-Sep-10 16:33N 46°42' W 001°57'0 0.0
2014-Sep-10 15:33N 46°42' W 001°57'3 3.2
2014-Sep-10 14:33N 46°40' W 002°01'9 8.3
2014-Sep-10 13:29N 46°36' W 002°12'5 5.3
2014-Sep-10 12:32N 46°33' W 002°18'1 0.6
2014-Sep-10 11:25N 46°33' W 002°18'1 0.3
2014-Sep-10 08:24N 46°33' W 002°17'3 1.4
2014-Sep-10 06:33N 46°35' W 002°15'3 2.7
2014-Sep-10 05:33N 46°37' W 002°12'9 8.9
2014-Sep-10 04:33N 46°40' W 001°60'2 2.5
2014-Sep-10 03:33N 46°42' W 001°57'0 0.1
2014-Sep-10 02:33N 46°42' W 001°57'0 0.0
2014-Sep-10 01:33N 46°42' W 001°57'2 2.2
2014-Sep-10 00:33N 46°40' W 001°59'1 0.5
2014-Sep-09 23:33N 46°40' W 001°59'0 0.2
2014-Sep-09 22:33N 46°40' W 001°60'0 0.2
2014-Sep-09 21:33N 46°40' W 001°60'5 5.0
2014-Sep-09 20:33N 46°38' W 002°06'7 6.2
2014-Sep-09 19:29N 46°35' W 002°15'1 1.1
2014-Sep-09 18:23N 46°35' W 002°16'2 2.0
2014-Sep-09 17:22N 46°36' W 002°19'2 0.4
2014-Sep-09 12:07N 46°35' W 002°17'2 4.0
2014-Sep-09 11:32N 46°35' W 002°13'5 4.6
2014-Sep-09 10:32N 46°33' W 002°08'0 0.4
2014-Sep-09 09:32N 46°32' W 002°08'2 1.9
2014-Sep-09 08:33N 46°31' W 002°06'7 6.8
2014-Sep-09 07:33N 46°29' W 002°15'8 8.0
2014-Sep-09 06:33N 46°24' W 002°06'2 1.7
2014-Sep-09 05:32N 46°26' W 002°07'5 5.2
2014-Sep-09 04:33N 46°31' W 002°05'6 5.6
2014-Sep-09 03:33N 46°36' W 002°01'7 0.7
2014-Sep-08 17:33N 46°42' W 001°56'0 0.0
2014-Sep-08 16:23N 46°42' W 001°56'0 0.0
2014-Sep-08 14:07N 46°42' W 001°56'0 0.1
2014-Sep-08 13:33N 46°42' W 001°56'6 5.8
2014-Sep-08 12:33N 46°38' W 002°03'10 9.5
2014-Sep-08 11:33N 46°31' W 002°12'4 4.2
2014-Sep-08 10:33N 46°29' W 002°18'1 0.3
2014-Sep-08 07:28N 46°28' W 002°18'1 1.1
2014-Sep-08 06:33N 46°28' W 002°16'4 4.1
2014-Sep-08 05:33N 46°29' W 002°11'10 9.9
2014-Sep-08 04:33N 46°37' W 002°02'6 6.1
2014-Sep-08 03:33N 46°42' W 001°57'0 0.1
2014-Sep-08 02:33N 46°42' W 001°57'0 0.0
2014-Sep-08 01:33N 46°42' W 001°57'0 0.0
2014-Sep-08 00:33N 46°42' W 001°57'0 0.0
2014-Sep-07 22:34N 46°42' W 001°57'0 0.0
2014-Sep-07 21:33N 46°42' W 001°57'0 0.0
2014-Sep-07 20:33N 46°42' W 001°57'0 0.0
2014-Sep-07 19:33N 46°42' W 001°57'0 0.0
2014-Sep-07 18:33N 46°42' W 001°57'0 0.0
2014-Sep-07 17:33N 46°42' W 001°57'2 2.0
2014-Sep-07 16:33N 46°40' W 001°59'10 9.6
2014-Sep-07 15:33N 46°33' W 002°07'6 5.8
2014-Sep-07 14:33N 46°28' W 002°11'1 1.3
2014-Sep-07 13:33N 46°28' W 002°13'3 3.0
2014-Sep-07 12:33N 46°28' W 002°08'1 0.8
2014-Sep-07 11:33N 46°29' W 002°08'2 2.3
2014-Sep-07 10:33N 46°31' W 002°06'1 0.7
2014-Sep-07 09:33N 46°31' W 002°05'2 2.1
2014-Sep-07 08:33N 46°31' W 002°08'0 0.4
2014-Sep-07 07:33N 46°31' W 002°08'0 0.2
2014-Sep-07 06:33N 46°31' W 002°08'1 0.5
2014-Sep-07 05:33N 46°31' W 002°09'3 2.8
2014-Sep-07 04:33N 46°34' W 002°06'8 7.8
2014-Sep-07 03:33N 46°40' W 001°59'  
Track history (hours):
 
Tides and Currents Weather Stations Pressure Air Temp Water Temp Dewpoint Dewpoint Depression Visibility Wind Speed Wind Dir Waves Ship Positions

F/V Jeremi Simon

Last reported at 2014-Sep-15 08:33 UTC. Time now 2014-Sep-15 09:31 UTC.
Position N 46°23' W 002°06'.

Length 20 m.

Type: Other ship. MMSI: 227415000.

Date/timePositionNaut miles runAvg speedWind from/ knotsBaromVisibWave heightAir tempDewpointWater temp
2014-Sep-15 08:33N 46°23' W 002°06'3 3.1
2014-Sep-15 07:33N 46°26' W 002°08'3 3.1
2014-Sep-15 06:32N 46°29' W 002°10'9 8.0
2014-Sep-15 05:28N 46°37' W 002°05'8 8.4
2014-Sep-15 04:33N 46°42' W 001°57'0 0.0
2014-Sep-15 03:33N 46°42' W 001°57'0 0.0
2014-Sep-14 17:33N 46°42' W 001°57'0 0.1
2014-Sep-14 16:33N 46°42' W 001°57'0 0.0
2014-Sep-14 15:33N 46°42' W 001°57'2 2.0
2014-Sep-14 14:33N 46°41' W 001°59'0 0.5
2014-Sep-14 13:33N 46°41' W 001°59'7 6.7
2014-Sep-14 12:33N 46°36' W 002°06'7 6.1
2014-Sep-14 11:20N 46°32' W 002°15'2 1.1
2014-Sep-14 09:33N 46°32' W 002°12'1 0.9
2014-Sep-14 08:32N 46°32' W 002°13'2 1.2
2014-Sep-14 07:13N 46°33' W 002°11'1 1.8
2014-Sep-14 06:33N 46°32' W 002°12'2 2.2
2014-Sep-14 05:33N 46°33' W 002°09'8 8.2
2014-Sep-14 04:33N 46°39' W 002°01'4 4.4
2014-Sep-14 03:33N 46°42' W 001°57'  
2014-Sep-11 15:33N 46°39' W 001°59'9 9.5
2014-Sep-11 14:33N 46°30' W 002°06'8 8.2
2014-Sep-11 13:32N 46°23' W 002°11'1 0.5
2014-Sep-11 12:24N 46°22' W 002°11'0 0.2
2014-Sep-11 11:13N 46°22' W 002°11'0 0.3
2014-Sep-11 10:29N 46°22' W 002°11'2 1.6
2014-Sep-11 09:33N 46°23' W 002°09'3 2.5
2014-Sep-11 08:33N 46°25' W 002°08'2 2.1
2014-Sep-11 07:27N 46°27' W 002°10'10 4.6
2014-Sep-11 05:11N 46°37' W 002°12'6 8.9
2014-Sep-11 04:33N 46°39' W 002°04'6 5.7
2014-Sep-11 03:33N 46°42' W 001°57'0 0.0
2014-Sep-10 16:33N 46°42' W 001°57'0 0.0
2014-Sep-10 15:33N 46°42' W 001°57'3 3.2
2014-Sep-10 14:33N 46°40' W 002°01'9 8.3
2014-Sep-10 13:29N 46°36' W 002°12'5 5.3
2014-Sep-10 12:32N 46°33' W 002°18'1 0.6
2014-Sep-10 11:25N 46°33' W 002°18'1 0.3
2014-Sep-10 08:24N 46°33' W 002°17'3 1.4
2014-Sep-10 06:33N 46°35' W 002°15'3 2.7
2014-Sep-10 05:33N 46°37' W 002°12'9 8.9
2014-Sep-10 04:33N 46°40' W 001°60'2 2.5
2014-Sep-10 03:33N 46°42' W 001°57'0 0.1
2014-Sep-10 02:33N 46°42' W 001°57'0 0.0
2014-Sep-10 01:33N 46°42' W 001°57'2 2.2
2014-Sep-10 00:33N 46°40' W 001°59'1 0.5
2014-Sep-09 23:33N 46°40' W 001°59'0 0.2
2014-Sep-09 22:33N 46°40' W 001°60'0 0.2
2014-Sep-09 21:33N 46°40' W 001°60'5 5.0
2014-Sep-09 20:33N 46°38' W 002°06'7 6.2
2014-Sep-09 19:29N 46°35' W 002°15'1 1.1
2014-Sep-09 18:23N 46°35' W 002°16'2 2.0
2014-Sep-09 17:22N 46°36' W 002°19'2 0.4
2014-Sep-09 12:07N 46°35' W 002°17'2 4.0
2014-Sep-09 11:32N 46°35' W 002°13'5 4.6
2014-Sep-09 10:32N 46°33' W 002°08'0 0.4
2014-Sep-09 09:32N 46°32' W 002°08'2 1.9
2014-Sep-09 08:33N 46°31' W 002°06'7 6.8
2014-Sep-09 07:33N 46°29' W 002°15'8 8.0
2014-Sep-09 06:33N 46°24' W 002°06'2 1.7
2014-Sep-09 05:32N 46°26' W 002°07'5 5.2
2014-Sep-09 04:33N 46°31' W 002°05'6 5.6
2014-Sep-09 03:33N 46°36' W 002°01'7 0.7
2014-Sep-08 17:33N 46°42' W 001°56'0 0.0
2014-Sep-08 16:23N 46°42' W 001°56'0 0.0
2014-Sep-08 14:07N 46°42' W 001°56'0 0.1
2014-Sep-08 13:33N 46°42' W 001°56'6 5.8
2014-Sep-08 12:33N 46°38' W 002°03'10 9.5
2014-Sep-08 11:33N 46°31' W 002°12'4 4.2
2014-Sep-08 10:33N 46°29' W 002°18'1 0.3
2014-Sep-08 07:28N 46°28' W 002°18'1 1.1
2014-Sep-08 06:33N 46°28' W 002°16'4 4.1
2014-Sep-08 05:33N 46°29' W 002°11'10 9.9
2014-Sep-08 04:33N 46°37' W 002°02'6 6.1
2014-Sep-08 03:33N 46°42' W 001°57'0 0.1
2014-Sep-08 02:33N 46°42' W 001°57'0 0.0
2014-Sep-08 01:33N 46°42' W 001°57'0 0.0
2014-Sep-08 00:33N 46°42' W 001°57'0 0.0
2014-Sep-07 22:34N 46°42' W 001°57'0 0.0
2014-Sep-07 21:33N 46°42' W 001°57'0 0.0
2014-Sep-07 20:33N 46°42' W 001°57'0 0.0
2014-Sep-07 19:33N 46°42' W 001°57'0 0.0
2014-Sep-07 18:33N 46°42' W 001°57'0 0.0
2014-Sep-07 17:33N 46°42' W 001°57'2 2.0
2014-Sep-07 16:33N 46°40' W 001°59'10 9.6
2014-Sep-07 15:33N 46°33' W 002°07'6 5.8
2014-Sep-07 14:33N 46°28' W 002°11'1 1.3
2014-Sep-07 13:33N 46°28' W 002°13'3 3.0
2014-Sep-07 12:33N 46°28' W 002°08'1 0.8
2014-Sep-07 11:33N 46°29' W 002°08'2 2.3
2014-Sep-07 10:33N 46°31' W 002°06'1 0.7
2014-Sep-07 09:33N 46°31' W 002°05'2 2.1
2014-Sep-07 08:33N 46°31' W 002°08'0 0.4
2014-Sep-07 07:33N 46°31' W 002°08'0 0.2
2014-Sep-07 06:33N 46°31' W 002°08'1 0.5
2014-Sep-07 05:33N 46°31' W 002°09'3 2.8
2014-Sep-07 04:33N 46°34' W 002°06'8 7.8
2014-Sep-07 03:33N 46°40' W 001°59'  

Dump ship's entire track history